createdAt,value
2023-02-08T00:00:53.254Z,16.03
2023-02-08T00:03:21.460Z,14.30
2023-02-08T00:05:49.917Z,15.10
2023-02-08T00:08:18.414Z,14.30
2023-02-08T00:10:46.616Z,14.50
2023-02-08T00:13:14.763Z,14.37
2023-02-08T00:15:43.558Z,15.13
2023-02-08T00:18:13.113Z,14.27
2023-02-08T00:20:41.974Z,15.13
2023-02-08T00:23:10.443Z,14.60
2023-02-08T00:25:38.649Z,14.33
2023-02-08T00:28:09.380Z,14.93
2023-02-08T00:30:37.681Z,14.43
2023-02-08T00:33:05.978Z,14.83
2023-02-08T00:35:35.627Z,15.77
2023-02-08T00:38:03.860Z,15.03
2023-02-08T00:40:32.015Z,15.47
2023-02-08T00:43:00.215Z,13.97
2023-02-08T00:45:28.408Z,14.60
2023-02-08T00:47:56.573Z,14.63
2023-02-08T00:50:24.777Z,16.10
2023-02-08T00:52:54.292Z,13.77
2023-02-08T00:55:22.485Z,24.03
2023-02-08T00:57:50.700Z,16.53
2023-02-08T01:00:19.100Z,15.13
2023-02-08T01:02:47.285Z,15.87
2023-02-08T01:05:15.500Z,14.83
2023-02-08T01:07:43.700Z,14.53
2023-02-08T01:10:13.288Z,14.10
2023-02-08T01:12:41.467Z,15.47
2023-02-08T01:15:10.201Z,14.70
2023-02-08T01:17:38.328Z,14.90
2023-02-08T01:20:06.716Z,14.90
2023-02-08T01:22:34.945Z,15.67
2023-02-08T01:25:03.162Z,14.93
2023-02-08T01:27:32.635Z,14.17
2023-02-08T01:30:00.774Z,15.00
2023-02-08T01:32:28.913Z,14.77
2023-02-08T01:34:57.086Z,14.27
2023-02-08T01:37:25.254Z,15.37
2023-02-08T01:39:53.373Z,15.03
2023-02-08T01:42:21.877Z,15.47
2023-02-08T01:45:08.545Z,15.00
2023-02-08T01:47:38.049Z,15.07
2023-02-08T01:50:06.325Z,14.97
2023-02-08T01:52:34.613Z,14.20
2023-02-08T01:55:04.986Z,14.10
2023-02-08T01:57:33.313Z,13.87
2023-02-08T02:00:03.313Z,13.87
2023-02-08T02:02:32.384Z,13.67
2023-02-08T02:05:02.862Z,13.73
2023-02-08T02:07:32.286Z,13.43
2023-02-08T02:10:04.496Z,14.20
2023-02-08T02:12:33.545Z,13.47
2023-02-08T02:15:02.447Z,13.40
2023-02-08T02:17:30.675Z,14.13
2023-02-08T02:20:03.455Z,14.17
2023-02-08T02:22:49.597Z,13.73
2023-02-08T02:25:35.581Z,13.57
2023-02-08T02:28:15.584Z,13.53
2023-02-08T02:31:03.480Z,13.07
2023-02-08T02:33:41.502Z,13.43
2023-02-08T02:36:15.524Z,14.03
2023-02-08T02:38:51.288Z,14.07
2023-02-08T02:41:40.163Z,14.20
2023-02-08T02:44:11.830Z,13.03
2023-02-08T02:46:41.680Z,13.67
2023-02-08T02:49:16.918Z,14.00
2023-02-08T02:51:47.792Z,13.43
2023-02-08T02:54:17.180Z,13.50
2023-02-08T02:56:46.515Z,12.60
2023-02-08T02:59:16.506Z,13.80
2023-02-08T03:01:45.318Z,13.20
2023-02-08T03:04:18.723Z,12.93
2023-02-08T03:06:57.097Z,14.60
2023-02-08T03:09:33.842Z,13.53
2023-02-08T03:12:06.538Z,12.67
2023-02-08T03:14:37.270Z,12.70
2023-02-08T03:17:11.443Z,13.40
2023-02-08T03:19:44.973Z,13.90
2023-02-08T03:22:14.750Z,13.47
2023-02-08T03:24:47.994Z,14.43
2023-02-08T03:27:19.368Z,13.07
2023-02-08T03:29:51.753Z,12.87
2023-02-08T03:32:23.157Z,13.30
2023-02-08T03:34:55.738Z,12.90
2023-02-08T03:37:25.545Z,14.33
2023-02-08T03:39:55.920Z,13.80
2023-02-08T03:42:26.725Z,13.67
2023-02-08T03:44:57.224Z,13.60
2023-02-08T03:47:26.750Z,13.83
2023-02-08T03:49:58.824Z,13.90
2023-02-08T03:52:27.906Z,13.50
2023-02-08T03:54:57.394Z,13.40
2023-02-08T03:57:26.573Z,14.53
2023-02-08T03:59:58.227Z,13.60
2023-02-08T04:02:28.596Z,14.10
2023-02-08T04:04:58.829Z,13.60
2023-02-08T04:07:26.995Z,13.87
2023-02-08T04:09:55.228Z,14.20
2023-02-08T04:12:23.478Z,12.93
2023-02-08T04:14:51.656Z,12.93
2023-02-08T04:17:19.795Z,14.30
2023-02-08T04:19:47.995Z,14.47
2023-02-08T04:22:17.535Z,13.60
2023-02-08T04:24:45.680Z,14.13
2023-02-08T04:27:13.829Z,13.07
2023-02-08T04:29:42.282Z,13.50
2023-02-08T04:32:11.724Z,14.83
2023-02-08T04:34:39.940Z,13.07
2023-02-08T04:37:08.420Z,14.30
2023-02-08T04:39:37.960Z,13.57
2023-02-08T04:42:06.265Z,13.53
2023-02-08T04:44:34.438Z,13.83
2023-02-08T04:47:02.633Z,13.60
2023-02-08T04:49:30.822Z,14.43
2023-02-08T04:51:59.031Z,13.77
2023-02-08T04:54:27.243Z,14.60
2023-02-08T04:56:56.773Z,13.30
2023-02-08T04:59:24.946Z,13.87
2023-02-08T05:01:53.205Z,14.27
2023-02-08T05:04:21.450Z,14.23
2023-02-08T05:06:49.620Z,14.37
2023-02-08T05:09:17.814Z,14.03
2023-02-08T05:11:46.008Z,13.53
2023-02-08T05:14:15.553Z,14.00
2023-02-08T05:16:43.794Z,13.80
2023-02-08T05:19:12.569Z,13.80
2023-02-08T05:21:40.733Z,13.60
2023-02-08T05:24:12.575Z,13.80
2023-02-08T05:26:40.879Z,12.87
2023-02-08T05:29:09.097Z,13.90
2023-02-08T05:31:38.766Z,13.47
2023-02-08T05:34:07.102Z,13.63
2023-02-08T05:36:35.320Z,13.17
2023-02-08T05:39:03.514Z,13.27
2023-02-08T05:41:31.697Z,13.43
2023-02-08T05:43:59.926Z,13.27
2023-02-08T05:46:28.192Z,12.77
2023-02-08T05:48:57.815Z,13.07
2023-02-08T05:51:25.941Z,13.20
2023-02-08T05:53:54.154Z,13.00
2023-02-08T05:56:22.346Z,12.83
2023-02-08T05:58:50.553Z,13.40
2023-02-08T06:01:19.728Z,13.23
2023-02-08T06:03:47.958Z,13.63
2023-02-08T06:06:17.494Z,13.13
2023-02-08T06:08:45.714Z,13.30
2023-02-08T06:11:13.957Z,13.10
2023-02-08T06:13:42.145Z,13.77
2023-02-08T06:16:10.303Z,13.67
2023-02-08T06:18:38.505Z,13.37
2023-02-08T06:21:06.812Z,13.10
2023-02-08T06:23:36.399Z,12.43
2023-02-08T06:26:04.569Z,12.83
2023-02-08T06:28:32.786Z,13.20
2023-02-08T06:31:00.970Z,13.10
2023-02-08T06:33:29.344Z,12.90
2023-02-08T06:35:57.530Z,12.80
2023-02-08T06:38:25.713Z,13.40
2023-02-08T06:40:55.236Z,13.00
2023-02-08T06:43:23.510Z,12.80
2023-02-08T06:45:51.779Z,12.77
2023-02-08T06:48:20.005Z,12.77
2023-02-08T06:50:48.378Z,12.87
2023-02-08T06:53:16.547Z,13.73
2023-02-08T06:55:44.825Z,12.70
2023-02-08T06:58:14.306Z,13.20
2023-02-08T07:00:45.331Z,14.03
2023-02-08T07:03:13.493Z,13.03
2023-02-08T07:05:47.261Z,13.13
2023-02-08T07:08:23.522Z,13.20
2023-02-08T07:10:51.682Z,13.47
2023-02-08T07:13:21.200Z,13.33
2023-02-08T07:15:49.350Z,13.30
2023-02-08T07:18:17.493Z,13.23
2023-02-08T07:20:45.637Z,12.93
2023-02-08T07:23:13.807Z,13.60
2023-02-08T07:25:41.949Z,13.37
2023-02-08T07:28:10.172Z,13.47
2023-02-08T07:30:40.019Z,12.90
2023-02-08T07:33:08.378Z,13.13
2023-02-08T07:35:36.541Z,12.63
2023-02-08T07:38:04.725Z,13.33
2023-02-08T07:40:33.073Z,13.10
2023-02-08T07:43:01.289Z,13.17
2023-02-08T07:45:29.475Z,13.47
2023-02-08T07:47:59.007Z,12.97
2023-02-08T07:50:27.134Z,12.90
2023-02-08T07:52:55.312Z,14.20
2023-02-08T07:55:23.640Z,13.40
2023-02-08T07:57:52.037Z,14.10
2023-02-08T08:00:20.864Z,14.00
2023-02-08T08:02:50.467Z,13.73
2023-02-08T08:05:20.728Z,13.77
2023-02-08T08:07:49.014Z,14.13
2023-02-08T08:10:17.268Z,13.70
2023-02-08T08:12:45.413Z,13.67
2023-02-08T08:15:13.648Z,14.03
2023-02-08T08:17:42.290Z,13.97
2023-02-08T08:20:11.370Z,14.37
2023-02-08T08:22:40.937Z,14.43
2023-02-08T08:25:09.349Z,14.17
2023-02-08T08:27:38.072Z,14.17
2023-02-08T08:30:07.773Z,14.70
2023-02-08T08:32:35.949Z,14.00
2023-02-08T08:35:04.149Z,14.67
2023-02-08T08:37:32.356Z,14.30
2023-02-08T08:40:01.840Z,14.50
2023-02-08T08:42:29.982Z,15.10
2023-02-08T08:44:58.258Z,14.53
2023-02-08T08:47:26.464Z,14.63
2023-02-08T08:49:54.688Z,14.33
2023-02-08T08:52:23.078Z,15.03
2023-02-08T08:54:51.311Z,14.53
2023-02-08T08:57:20.823Z,15.17
2023-02-08T08:59:48.952Z,14.43
2023-02-08T09:02:17.384Z,14.67
2023-02-08T09:04:45.707Z,15.40
2023-02-08T09:07:13.924Z,14.77
2023-02-08T09:09:42.116Z,15.70
2023-02-08T09:12:10.310Z,14.57
2023-02-08T09:14:39.793Z,15.30
2023-02-08T09:17:08.196Z,16.23
2023-02-08T09:19:36.376Z,15.80
2023-02-08T09:22:04.642Z,15.00
2023-02-08T09:24:32.848Z,15.10
2023-02-08T09:27:01.034Z,16.20
2023-02-08T09:29:30.186Z,14.93
2023-02-08T09:31:59.840Z,15.47
2023-02-08T09:34:28.106Z,14.97
2023-02-08T09:36:56.266Z,15.67
2023-02-08T09:39:25.569Z,15.23
2023-02-08T09:42:02.222Z,15.57
2023-02-08T09:44:33.272Z,15.40
2023-02-08T09:47:05.221Z,15.80
2023-02-08T09:49:35.751Z,15.30
2023-02-08T09:52:05.453Z,14.97
2023-02-08T09:54:35.326Z,16.37
2023-02-08T09:57:04.068Z,14.83
2023-02-08T09:59:33.824Z,16.57
2023-02-08T10:02:05.794Z,14.87
2023-02-08T10:04:38.000Z,16.50
2023-02-08T10:07:06.269Z,15.10
2023-02-08T10:09:34.469Z,14.60
2023-02-08T10:12:08.468Z,13.83
2023-02-08T10:14:45.016Z,14.60
2023-02-08T10:17:25.489Z,13.70
2023-02-08T10:20:02.040Z,12.80
2023-02-08T10:22:35.845Z,13.80
2023-02-08T10:25:16.496Z,12.57
2023-02-08T10:27:50.482Z,13.17
2023-02-08T10:30:23.814Z,11.53
2023-02-08T10:32:56.627Z,13.20
2023-02-08T10:35:27.482Z,11.33
2023-02-08T10:38:03.779Z,12.30
2023-02-08T10:40:35.534Z,11.63
2023-02-08T10:43:07.689Z,10.83
2023-02-08T10:45:47.872Z,10.80
2023-02-08T10:48:20.506Z,10.63
2023-02-08T10:50:56.654Z,10.20
2023-02-08T10:53:27.697Z,10.03
2023-02-08T10:55:57.400Z,10.10
2023-02-08T10:58:27.236Z,11.90
2023-02-08T11:01:00.806Z,9.73
2023-02-08T11:03:34.281Z,10.37
2023-02-08T11:06:03.406Z,10.43
2023-02-08T11:08:37.153Z,10.87
2023-02-08T11:11:08.459Z,11.60
2023-02-08T11:13:38.117Z,11.33
2023-02-08T11:16:10.663Z,11.47
2023-02-08T11:18:42.238Z,10.53
2023-02-08T11:21:16.143Z,11.00
2023-02-08T11:23:44.741Z,11.07
2023-02-08T11:26:18.006Z,10.60
2023-02-08T11:28:46.814Z,9.90
2023-02-08T11:34:08.360Z,10.37
2023-02-08T11:36:37.532Z,10.33
2023-02-08T11:39:24.441Z,10.13
2023-02-08T11:41:58.403Z,9.97
2023-02-08T11:44:28.815Z,10.10
2023-02-08T11:47:03.651Z,10.50
2023-02-08T11:49:42.450Z,9.80
2023-02-08T11:52:21.550Z,9.37
2023-02-08T11:54:49.790Z,10.17
2023-02-08T11:57:20.149Z,9.77
2023-02-08T11:59:48.431Z,9.40
2023-02-08T12:02:36.481Z,9.57
2023-02-08T12:05:08.423Z,9.80
2023-02-08T12:07:43.039Z,10.17
2023-02-08T12:10:28.981Z,9.13
2023-02-08T12:13:06.019Z,9.50
2023-02-08T12:15:51.352Z,9.77
2023-02-08T12:18:33.988Z,8.70
2023-02-08T12:21:06.514Z,9.70
2023-02-08T12:23:45.030Z,9.33
2023-02-08T12:26:19.159Z,9.60
2023-02-08T12:29:05.215Z,9.60
2023-02-08T12:31:41.030Z,8.80
2023-02-08T12:34:12.882Z,8.97
2023-02-08T12:36:49.905Z,9.30
2023-02-08T12:39:44.652Z,9.13
2023-02-08T12:42:19.960Z,8.33
2023-02-08T12:44:56.330Z,9.10
2023-02-08T12:47:34.157Z,8.40
2023-02-08T12:50:07.103Z,7.63
2023-02-08T12:52:38.988Z,8.03
2023-02-08T12:55:10.536Z,7.73
2023-02-08T12:57:40.094Z,8.63
2023-02-08T13:00:09.377Z,7.83
2023-02-08T13:02:44.368Z,7.77
2023-02-08T13:05:15.040Z,8.10
2023-02-08T13:07:45.348Z,7.57
2023-02-08T13:10:18.522Z,8.73
2023-02-08T13:12:49.237Z,8.17
2023-02-08T13:15:30.082Z,8.37
2023-02-08T13:17:59.772Z,8.50
2023-02-08T13:20:33.405Z,8.67
2023-02-08T13:23:04.594Z,7.57
2023-02-08T13:25:34.230Z,7.83
2023-02-08T13:28:03.220Z,7.80
2023-02-08T13:30:31.671Z,8.00
2023-02-08T13:33:00.021Z,7.90
2023-02-08T13:35:30.104Z,8.47
2023-02-08T13:38:02.385Z,7.97
2023-02-08T13:40:32.910Z,8.53
2023-02-08T13:43:02.954Z,8.33
2023-02-08T13:45:32.911Z,7.93
2023-02-08T13:48:02.867Z,8.37
2023-02-08T13:50:48.497Z,8.50
2023-02-08T13:53:17.667Z,8.70
2023-02-08T13:55:58.074Z,8.27
2023-02-08T13:58:39.858Z,8.83
2023-02-08T14:01:15.579Z,8.13
2023-02-08T14:03:44.196Z,8.97
2023-02-08T14:06:18.780Z,8.77
2023-02-08T14:08:52.476Z,9.00
2023-02-08T14:11:28.305Z,8.30
2023-02-08T14:13:58.880Z,8.93
2023-02-08T14:16:32.131Z,8.97
2023-02-08T14:19:01.547Z,8.87
2023-02-08T14:21:33.086Z,8.10
2023-02-08T14:24:02.784Z,8.57
2023-02-08T14:26:32.570Z,8.63
2023-02-08T14:29:01.629Z,8.60
2023-02-08T14:31:40.981Z,8.90
2023-02-08T14:34:22.135Z,9.03
2023-02-08T14:36:59.985Z,9.10
2023-02-08T14:39:29.112Z,8.63
2023-02-08T14:42:01.067Z,9.10
2023-02-08T14:44:56.393Z,9.07
2023-02-08T14:47:43.007Z,9.50
2023-02-08T14:50:17.330Z,9.17
2023-02-08T14:52:49.350Z,9.37
2023-02-08T14:55:19.369Z,9.50
2023-02-08T14:57:48.956Z,8.87
2023-02-08T15:00:20.787Z,8.90
2023-02-08T15:02:49.516Z,8.60
2023-02-08T15:05:22.545Z,8.97
2023-02-08T15:07:52.844Z,9.10
2023-02-08T15:10:22.077Z,8.63
2023-02-08T15:12:53.628Z,8.57
2023-02-08T15:15:26.760Z,8.77
2023-02-08T15:17:56.340Z,8.73
2023-02-08T15:20:25.775Z,7.63
2023-02-08T15:23:00.313Z,8.33
2023-02-08T15:25:29.913Z,7.90
2023-02-08T15:28:00.694Z,8.37
2023-02-08T15:30:31.593Z,8.27
2023-02-08T15:33:00.301Z,8.00
2023-02-08T15:35:29.091Z,7.50
2023-02-08T15:37:57.532Z,7.13
2023-02-08T15:40:27.460Z,7.60
2023-02-08T15:42:55.664Z,8.00
2023-02-08T15:45:30.482Z,7.87
2023-02-08T15:47:59.356Z,7.33
2023-02-08T15:50:28.288Z,7.00
2023-02-08T15:52:59.273Z,7.63
2023-02-08T15:55:28.974Z,7.17
2023-02-08T15:57:58.664Z,7.23
2023-02-08T16:00:30.767Z,6.77
2023-02-08T16:02:59.962Z,7.37
2023-02-08T16:05:30.487Z,7.17
2023-02-08T16:07:59.081Z,7.77
2023-02-08T16:10:31.329Z,7.97
2023-02-08T16:13:01.050Z,7.43
2023-02-08T16:15:41.177Z,7.23
2023-02-08T16:18:24.215Z,8.20
2023-02-08T16:20:58.043Z,7.63
2023-02-08T16:23:27.129Z,8.37
2023-02-08T16:25:55.332Z,7.23
2023-02-08T16:28:28.310Z,7.90
2023-02-08T16:30:58.808Z,7.50
2023-02-08T16:33:27.606Z,7.73
2023-02-08T16:36:01.685Z,8.40
2023-02-08T16:38:31.075Z,8.10
2023-02-08T16:41:11.893Z,7.77
2023-02-08T16:43:43.992Z,8.20
2023-02-08T16:46:30.364Z,8.63
2023-02-08T16:48:59.918Z,8.57
2023-02-08T16:51:29.112Z,8.17
2023-02-08T16:53:58.126Z,8.43
2023-02-08T16:56:26.508Z,8.80
2023-02-08T16:58:54.672Z,9.27
2023-02-08T17:01:24.287Z,9.90
2023-02-08T17:03:53.251Z,8.83
2023-02-08T17:06:28.525Z,9.20
2023-02-08T17:08:56.810Z,8.27
2023-02-08T17:11:25.248Z,8.97
2023-02-08T17:13:53.397Z,9.10
2023-02-08T17:16:23.078Z,8.50
2023-02-08T17:18:51.973Z,8.33
2023-02-08T17:21:20.258Z,8.27
2023-02-08T17:23:51.089Z,8.87
2023-02-08T17:26:22.229Z,8.67
2023-02-08T17:28:51.130Z,9.23
2023-02-08T17:31:19.454Z,8.77
2023-02-08T17:33:47.816Z,9.60
2023-02-08T17:36:16.641Z,9.80
2023-02-08T17:38:45.655Z,9.27
2023-02-08T17:41:16.939Z,8.93
2023-02-08T17:43:45.163Z,8.73
2023-02-08T17:46:13.922Z,9.53
2023-02-08T17:48:42.330Z,10.13
2023-02-08T17:51:10.962Z,10.33
2023-02-08T17:53:40.859Z,9.53
2023-02-08T17:56:09.618Z,9.43
2023-02-08T17:58:39.193Z,9.20
2023-02-08T18:01:07.785Z,8.80
2023-02-08T18:03:36.180Z,8.83
2023-02-08T18:06:06.133Z,9.33
2023-02-08T18:08:37.056Z,8.77
2023-02-08T18:11:06.250Z,9.03
2023-02-08T18:13:36.060Z,8.70
2023-02-08T18:16:10.148Z,9.70
2023-02-08T18:18:38.417Z,9.67
2023-02-08T18:21:10.680Z,9.77
2023-02-08T18:23:38.847Z,9.60
2023-02-08T18:26:07.785Z,10.20
2023-02-08T18:28:35.936Z,9.67
2023-02-08T18:31:04.852Z,9.80
2023-02-08T18:33:34.620Z,10.10
2023-02-08T18:36:02.811Z,10.27
2023-02-08T18:38:31.011Z,9.90
2023-02-08T18:40:59.214Z,10.43
2023-02-08T18:43:27.449Z,10.57
2023-02-08T18:46:00.528Z,10.53
2023-02-08T18:48:28.929Z,11.00
2023-02-08T18:50:58.608Z,11.00
2023-02-08T18:53:28.423Z,11.50
2023-02-08T18:55:56.991Z,11.90
2023-02-08T18:58:25.493Z,13.57
2023-02-08T19:00:53.808Z,12.77
2023-02-08T19:03:22.725Z,12.83
2023-02-08T19:05:50.912Z,13.67
2023-02-08T19:08:22.128Z,13.30
2023-02-08T19:10:50.408Z,14.17
2023-02-08T19:13:18.577Z,14.23
2023-02-08T19:15:46.889Z,14.20
2023-02-08T19:18:15.048Z,14.73
2023-02-08T19:20:43.880Z,13.30
2023-02-08T19:23:12.107Z,14.47
2023-02-08T19:25:42.020Z,15.07
2023-02-08T19:28:11.160Z,15.33
2023-02-08T19:30:39.453Z,15.33
2023-02-08T19:33:07.725Z,16.53
2023-02-08T19:35:38.186Z,17.90
2023-02-08T19:38:06.422Z,15.93
2023-02-08T19:40:34.646Z,16.40
2023-02-08T19:43:04.173Z,16.07
2023-02-08T19:45:32.372Z,17.30
2023-02-08T19:48:00.567Z,15.90
2023-02-08T19:50:28.767Z,16.23
2023-02-08T19:52:56.962Z,17.27
2023-02-08T19:55:25.197Z,16.50
2023-02-08T19:57:53.422Z,17.87
2023-02-08T20:00:24.319Z,16.10
2023-02-08T20:02:52.720Z,16.43
2023-02-08T20:05:20.930Z,16.10
2023-02-08T20:07:49.062Z,16.27
2023-02-08T20:10:17.399Z,16.93
2023-02-08T20:12:45.627Z,15.60
2023-02-08T20:15:13.835Z,16.37
2023-02-08T20:17:44.550Z,13.03
2023-02-08T20:20:13.089Z,14.03
2023-02-08T20:22:41.220Z,15.73
2023-02-08T20:25:09.654Z,14.80
2023-02-08T20:27:37.804Z,14.50
2023-02-08T20:30:06.294Z,13.27
2023-02-08T20:32:34.416Z,13.50
2023-02-08T20:35:03.988Z,12.43
2023-02-08T20:37:32.137Z,12.93
2023-02-08T20:40:00.342Z,12.00
2023-02-08T20:42:28.573Z,12.67
2023-02-08T20:44:56.765Z,13.17
2023-02-08T20:47:24.937Z,10.63
2023-02-08T20:49:53.183Z,10.27
2023-02-08T20:52:22.677Z,11.20
2023-02-08T20:54:50.852Z,10.43
2023-02-08T20:57:18.986Z,10.80
2023-02-08T20:59:47.347Z,10.43
2023-02-08T21:02:18.505Z,10.47
2023-02-08T21:04:46.736Z,10.27
2023-02-08T21:07:16.372Z,10.20
2023-02-08T21:09:46.245Z,10.00
2023-02-08T21:12:14.572Z,10.17
2023-02-08T21:14:44.580Z,10.57
2023-02-08T21:17:12.818Z,9.37
2023-02-08T21:19:41.028Z,9.30
2023-02-08T21:22:09.199Z,9.10
2023-02-08T21:24:37.378Z,9.23
2023-02-08T21:27:07.434Z,7.60
2023-02-08T21:29:35.610Z,7.73
2023-02-08T21:32:03.920Z,8.17
2023-02-08T21:34:32.168Z,8.10
2023-02-08T21:37:00.372Z,7.47
2023-02-08T21:39:28.549Z,7.40
2023-02-08T21:41:56.773Z,7.53
2023-02-08T21:44:26.315Z,6.73
2023-02-08T21:46:54.501Z,6.80
2023-02-08T21:49:40.467Z,7.07
2023-02-08T21:52:26.451Z,6.80
2023-02-08T21:54:54.642Z,7.20
2023-02-08T21:57:24.651Z,7.50
2023-02-08T21:59:55.876Z,6.73
2023-02-08T22:02:25.760Z,6.80
2023-02-08T22:05:12.220Z,7.27
2023-02-08T22:07:44.339Z,7.40
2023-02-08T22:10:13.459Z,7.13
2023-02-08T22:12:41.943Z,7.63
2023-02-08T22:15:12.993Z,6.83
2023-02-08T22:17:41.218Z,6.97
2023-02-08T22:20:10.122Z,7.10
2023-02-08T22:22:38.409Z,7.00
2023-02-08T22:25:06.859Z,7.50
2023-02-08T22:27:35.057Z,7.23
2023-02-08T22:30:03.346Z,7.07
2023-02-08T22:32:33.082Z,7.27
2023-02-08T22:35:01.234Z,6.80
2023-02-08T22:37:29.583Z,6.87
2023-02-08T22:39:57.798Z,7.07
2023-02-08T22:42:27.735Z,7.10
2023-02-08T22:44:56.204Z,7.03
2023-02-08T22:47:24.687Z,6.60
2023-02-08T22:49:54.419Z,7.33
2023-02-08T22:52:22.583Z,7.30
2023-02-08T22:54:52.405Z,6.60
2023-02-08T22:57:20.578Z,7.17
2023-02-08T22:59:48.841Z,6.93
2023-02-08T23:02:17.889Z,7.33
2023-02-08T23:04:46.202Z,7.90
2023-02-08T23:07:15.733Z,7.77
2023-02-08T23:09:43.902Z,7.57
2023-02-08T23:12:12.069Z,7.63
2023-02-08T23:14:40.292Z,7.20
2023-02-08T23:17:08.504Z,8.90
2023-02-08T23:19:36.625Z,7.60
2023-02-08T23:22:04.867Z,7.63
2023-02-08T23:24:34.347Z,7.53
2023-02-08T23:27:02.528Z,7.93
2023-02-08T23:29:30.703Z,7.70
2023-02-08T23:31:58.952Z,8.47
2023-02-08T23:34:27.144Z,8.37
2023-02-08T23:36:55.436Z,7.30
2023-02-08T23:39:23.679Z,8.00
2023-02-08T23:41:53.228Z,7.37
2023-02-08T23:44:21.438Z,7.93
2023-02-08T23:46:49.609Z,7.83
2023-02-08T23:49:17.801Z,8.30
2023-02-08T23:51:45.966Z,8.17
2023-02-08T23:54:14.194Z,8.30
2023-02-08T23:56:42.331Z,8.13
2023-02-08T23:59:12.808Z,8.53
